sensor_id;sensor_type;location;lat;lon;timestamp;temperature;humidity
1878;DHT22;939;51.426;6.972;2024-01-07T21:20:54;1.10;99.90
1878;DHT22;939;51.426;6.972;2024-01-07T21:23:28;1.10;99.90
1878;DHT22;939;51.426;6.972;2024-01-07T21:26:00;0.90;99.90
1878;DHT22;939;51.426;6.972;2024-01-07T21:28:32;1.00;99.90
1878;DHT22;939;51.426;6.972;2024-01-07T21:31:01;0.90;99.90
1878;DHT22;939;51.426;6.972;2024-01-07T21:33:31;1.00;99.90
1878;DHT22;939;51.426;6.972;2024-01-07T21:36:02;1.00;99.90
1878;DHT22;939;51.426;6.972;2024-01-07T21:38:29;1.00;99.90
1878;DHT22;939;51.426;6.972;2024-01-07T21:40:57;1.20;99.90
1878;DHT22;939;51.426;6.972;2024-01-07T21:43:55;1.20;99.90
1878;DHT22;939;51.426;6.972;2024-01-07T21:46:23;1.20;99.90
1878;DHT22;939;51.426;6.972;2024-01-07T21:48:53;1.40;99.90
1878;DHT22;939;51.426;6.972;2024-01-07T21:51:25;1.40;99.90
1878;DHT22;939;51.426;6.972;2024-01-07T21:54:08;1.30;99.90
1878;DHT22;939;51.426;6.972;2024-01-07T21:56:39;1.40;99.90
1878;DHT22;939;51.426;6.972;2024-01-07T21:59:12;1.40;99.90
1878;DHT22;939;51.426;6.972;2024-01-07T22:01:43;1.50;99.90
1878;DHT22;939;51.426;6.972;2024-01-07T22:04:12;1.70;99.90
1878;DHT22;939;51.426;6.972;2024-01-07T22:06:45;1.70;99.90
1878;DHT22;939;51.426;6.972;2024-01-07T22:09:22;1.60;99.90
1878;DHT22;939;51.426;6.972;2024-01-07T22:11:50;1.60;99.90
1878;DHT22;939;51.426;6.972;2024-01-07T22:14:19;1.60;99.90
1878;DHT22;939;51.426;6.972;2024-01-07T22:16:52;1.70;99.90
1878;DHT22;939;51.426;6.972;2024-01-07T22:19:19;1.70;99.90
1878;DHT22;939;51.426;6.972;2024-01-07T22:21:49;1.80;99.90
1878;DHT22;939;51.426;6.972;2024-01-07T22:24:16;1.70;99.90
1878;DHT22;939;51.426;6.972;2024-01-07T22:26:44;1.60;99.90
1878;DHT22;939;51.426;6.972;2024-01-07T22:29:12;1.60;99.90
1878;DHT22;939;51.426;6.972;2024-01-07T22:31:47;1.80;99.90
1878;DHT22;939;51.426;6.972;2024-01-07T22:34:19;1.60;99.90
1878;DHT22;939;51.426;6.972;2024-01-07T22:36:49;1.70;99.90
1878;DHT22;939;51.426;6.972;2024-01-07T22:39:23;1.80;99.90
1878;DHT22;939;51.426;6.972;2024-01-07T22:41:56;1.80;99.90
1878;DHT22;939;51.426;6.972;2024-01-07T22:44:36;1.70;99.90
1878;DHT22;939;51.426;6.972;2024-01-07T22:47:07;1.70;99.90
1878;DHT22;939;51.426;6.972;2024-01-07T22:49:34;1.70;99.90
1878;DHT22;939;51.426;6.972;2024-01-07T22:52:05;1.70;99.90
1878;DHT22;939;51.426;6.972;2024-01-07T22:54:41;1.70;99.90
1878;DHT22;939;51.426;6.972;2024-01-07T22:57:09;1.80;99.90
1878;DHT22;939;51.426;6.972;2024-01-07T22:59:46;1.70;99.90
1878;DHT22;939;51.426;6.972;2024-01-07T23:02:17;1.70;99.90
1878;DHT22;939;51.426;6.972;2024-01-07T23:04:44;1.70;99.90
1878;DHT22;939;51.426;6.972;2024-01-07T23:07:13;1.60;99.90
1878;DHT22;939;51.426;6.972;2024-01-07T23:09:43;1.60;99.90
1878;DHT22;939;51.426;6.972;2024-01-07T23:12:22;1.50;99.90
1878;DHT22;939;51.426;6.972;2024-01-07T23:14:50;1.70;99.90
1878;DHT22;939;51.426;6.972;2024-01-07T23:17:24;1.60;99.90
1878;DHT22;939;51.426;6.972;2024-01-07T23:19:55;1.60;99.90
1878;DHT22;939;51.426;6.972;2024-01-07T23:22:36;1.80;99.90
1878;DHT22;939;51.426;6.972;2024-01-07T23:25:10;1.70;99.90
1878;DHT22;939;51.426;6.972;2024-01-07T23:27:48;1.80;99.90
1878;DHT22;939;51.426;6.972;2024-01-07T23:30:35;1.70;99.90
1878;DHT22;939;51.426;6.972;2024-01-07T23:33:21;1.90;99.90
1878;DHT22;939;51.426;6.972;2024-01-07T23:36:30;1.90;99.90
1878;DHT22;939;51.426;6.972;2024-01-07T23:39:04;2.00;99.90
1878;DHT22;939;51.426;6.972;2024-01-07T23:41:40;2.00;99.80
1878;DHT22;939;51.426;6.972;2024-01-07T23:44:27;1.80;99.90
1878;DHT22;939;51.426;6.972;2024-01-07T23:47:08;1.60;99.90
1878;DHT22;939;51.426;6.972;2024-01-07T23:49:42;1.80;99.90
1878;DHT22;939;51.426;6.972;2024-01-07T23:52:19;1.70;99.90
1878;DHT22;939;51.426;6.972;2024-01-07T23:54:53;1.60;99.90
1878;DHT22;939;51.426;6.972;2024-01-07T23:57:27;1.70;99.90
1878;DHT22;939;51.426;6.972;2024-01-07T23:59:56;1.60;99.90
